createdAt,value
2017-12-04T00:01:31.748Z,98725.52
2017-12-04T00:04:00.043Z,98732.39
2017-12-04T00:06:29.095Z,98734.03
2017-12-04T00:08:57.380Z,98730.00
2017-12-04T00:11:25.728Z,98742.29
2017-12-04T00:13:54.013Z,98740.31
2017-12-04T00:16:22.292Z,98742.38
2017-12-04T00:18:50.630Z,98753.05
2017-12-04T00:21:18.925Z,98754.76
2017-12-04T00:23:47.203Z,98748.09
2017-12-04T00:26:15.491Z,98743.44
2017-12-04T00:28:43.767Z,98747.73
2017-12-04T00:31:12.296Z,98757.08
2017-12-04T00:33:40.587Z,98752.41
2017-12-04T00:36:09.630Z,98764.80
2017-12-04T00:38:37.904Z,98765.86
2017-12-04T00:41:06.353Z,98766.36
2017-12-04T00:43:34.649Z,98765.41
2017-12-04T00:46:02.935Z,98767.66
2017-12-04T00:48:31.225Z,98761.22
2017-12-04T00:50:59.508Z,98765.04
2017-12-04T00:53:27.796Z,98753.16
2017-12-04T00:55:56.096Z,98755.55
2017-12-04T00:58:24.378Z,98754.84
2017-12-04T01:00:52.686Z,98760.30
2017-12-04T01:03:21.735Z,98766.08
2017-12-04T01:05:50.784Z,98767.94
2017-12-04T01:08:19.769Z,98771.55
2017-12-04T01:10:48.053Z,98771.40
2017-12-04T01:13:16.351Z,98765.99
2017-12-04T01:15:44.644Z,98767.48
2017-12-04T01:18:12.929Z,98770.66
2017-12-04T01:20:41.968Z,98764.88
2017-12-04T01:23:10.281Z,98762.38
2017-12-04T01:25:38.568Z,98770.85
2017-12-04T01:28:06.875Z,98768.89
2017-12-04T01:30:35.229Z,98769.00
2017-12-04T01:33:03.553Z,98778.62
2017-12-04T01:35:31.848Z,98768.39
2017-12-04T01:38:00.139Z,98781.16
2017-12-04T01:40:28.420Z,98781.05
2017-12-04T01:42:56.708Z,98775.70
2017-12-04T01:45:26.824Z,98776.51
2017-12-04T01:47:56.104Z,98781.80
2017-12-04T01:50:24.439Z,98783.88
2017-12-04T01:52:52.717Z,98782.74
2017-12-04T01:55:21.031Z,98770.33
2017-12-04T01:57:49.355Z,98780.33
2017-12-04T02:00:17.652Z,98779.06
2017-12-04T02:02:45.928Z,98778.14
2017-12-04T02:05:14.213Z,98783.12
2017-12-04T02:07:43.268Z,98781.41
2017-12-04T02:10:11.548Z,98787.38
2017-12-04T02:12:39.892Z,98785.19
2017-12-04T02:15:08.180Z,98772.19
2017-12-04T02:17:36.462Z,98777.28
2017-12-04T02:20:05.514Z,98779.02
2017-12-04T02:22:33.807Z,98782.16
2017-12-04T02:25:02.097Z,98771.82
2017-12-04T02:27:30.377Z,98773.91
2017-12-04T02:29:58.697Z,98778.30
2017-12-04T02:32:27.543Z,98783.40
2017-12-04T02:34:55.841Z,98785.98
2017-12-04T02:37:24.133Z,98791.80
2017-12-04T02:39:52.454Z,98786.94
2017-12-04T02:42:20.752Z,98779.78
2017-12-04T02:44:49.036Z,98779.46
2017-12-04T02:47:17.320Z,98776.55
2017-12-04T02:49:46.368Z,98779.61
2017-12-04T02:52:14.652Z,98776.75
2017-12-04T02:54:42.952Z,98780.82
2017-12-04T02:57:11.241Z,98780.98
2017-12-04T02:59:39.539Z,98781.62
2017-12-04T03:02:07.825Z,98785.20
2017-12-04T03:04:36.126Z,98787.53
2017-12-04T03:07:04.409Z,98791.89
2017-12-04T03:09:32.684Z,98797.61
2017-12-04T03:12:00.996Z,98790.95
2017-12-04T03:14:29.284Z,98795.47
2017-12-04T03:16:57.569Z,98789.59
2017-12-04T03:19:25.893Z,98791.88
2017-12-04T03:21:54.173Z,98790.83
2017-12-04T03:24:23.961Z,98789.39
2017-12-04T03:26:52.249Z,98786.42
2017-12-04T03:29:20.541Z,98789.70
2017-12-04T03:31:48.838Z,98783.25
2017-12-04T03:34:17.146Z,98795.81
2017-12-04T03:36:45.432Z,98794.03
2017-12-04T03:39:14.549Z,98802.91
2017-12-04T03:41:42.824Z,98799.36
2017-12-04T03:44:11.108Z,98800.38
2017-12-04T03:46:39.383Z,98794.56
2017-12-04T03:49:07.672Z,98794.70
2017-12-04T03:51:35.948Z,98799.14
2017-12-04T03:54:04.240Z,98801.70
2017-12-04T03:56:32.532Z,98804.19
2017-12-04T03:59:01.625Z,98800.03
2017-12-04T04:01:29.912Z,98806.06
2017-12-04T04:03:58.204Z,98805.63
2017-12-04T04:06:26.492Z,98809.63
2017-12-04T04:08:54.776Z,98802.13
2017-12-04T04:11:23.060Z,98809.26
2017-12-04T04:13:51.384Z,98800.76
2017-12-04T04:16:19.672Z,98805.69
2017-12-04T04:18:47.959Z,98804.56
2017-12-04T04:21:16.310Z,98803.17
2017-12-04T04:23:45.385Z,98795.77
2017-12-04T04:26:13.681Z,98801.47
2017-12-04T04:28:42.758Z,98810.74
2017-12-04T04:31:11.069Z,98805.30
2017-12-04T04:33:39.369Z,98798.78
2017-12-04T04:36:07.663Z,98791.08
2017-12-04T04:38:35.974Z,98794.97
2017-12-04T04:41:04.257Z,98796.68
2017-12-04T04:43:33.316Z,98796.98
2017-12-04T04:46:01.632Z,98798.11
2017-12-04T04:48:30.678Z,98798.17
2017-12-04T04:50:59.716Z,98785.08
2017-12-04T04:53:28.056Z,98789.70
2017-12-04T04:55:56.350Z,98787.63
2017-12-04T04:58:24.636Z,98790.56
2017-12-04T05:00:52.920Z,98786.63
2017-12-04T05:03:21.212Z,98792.77
2017-12-04T05:05:50.275Z,98792.42
2017-12-04T05:08:18.569Z,98793.28
2017-12-04T05:10:47.616Z,98794.78
2017-12-04T05:13:15.976Z,98793.92
2017-12-04T05:15:44.988Z,98794.38
2017-12-04T05:18:13.274Z,98791.70
2017-12-04T05:20:41.550Z,98793.44
2017-12-04T05:23:09.841Z,98791.30
2017-12-04T05:25:38.152Z,98778.29
2017-12-04T05:28:07.214Z,98797.94
2017-12-04T05:30:35.513Z,98800.33
2017-12-04T05:33:04.561Z,98793.56
2017-12-04T05:35:32.849Z,98801.86
2017-12-04T05:38:01.156Z,98807.33
2017-12-04T05:40:30.221Z,98806.15
2017-12-04T05:42:58.493Z,98803.92
2017-12-04T05:45:26.777Z,98815.02
2017-12-04T05:47:55.058Z,98815.02
2017-12-04T05:50:23.354Z,98814.32
2017-12-04T05:52:51.632Z,98807.91
2017-12-04T05:55:19.949Z,98808.48
2017-12-04T05:57:48.226Z,98804.66
2017-12-04T06:00:16.518Z,98787.71
2017-12-04T06:02:44.807Z,98800.28
2017-12-04T06:05:13.098Z,98808.55
2017-12-04T06:07:41.384Z,98808.84
2017-12-04T06:10:09.672Z,98810.67
2017-12-04T06:12:37.972Z,98822.23
2017-12-04T06:15:06.263Z,98817.34
2017-12-04T06:17:34.548Z,98815.08
2017-12-04T06:20:02.840Z,98815.03
2017-12-04T06:22:31.126Z,98825.78
2017-12-04T06:24:59.410Z,98824.34
2017-12-04T06:27:27.698Z,98827.83
2017-12-04T06:29:56.995Z,98823.45
2017-12-04T06:32:25.311Z,98826.95
2017-12-04T06:34:53.597Z,98835.91
2017-12-04T06:37:21.906Z,98838.78
2017-12-04T06:39:50.216Z,98845.03
2017-12-04T06:42:18.498Z,98850.70
2017-12-04T06:44:47.561Z,98858.22
2017-12-04T06:47:15.869Z,98852.06
2017-12-04T06:49:44.164Z,98848.89
2017-12-04T06:52:12.461Z,98852.86
2017-12-04T06:54:40.735Z,98857.70
2017-12-04T06:57:09.007Z,98849.94
2017-12-04T06:59:37.286Z,98842.28
2017-12-04T07:02:05.572Z,98842.31
2017-12-04T07:04:33.847Z,98854.70
2017-12-04T07:07:02.126Z,98855.24
2017-12-04T07:09:30.413Z,98855.89
2017-12-04T07:11:58.697Z,98858.66
2017-12-04T07:14:26.995Z,98861.87
2017-12-04T07:16:55.295Z,98864.41
2017-12-04T07:19:23.572Z,98835.81
2017-12-04T07:21:51.857Z,98868.66
2017-12-04T07:24:20.142Z,98871.10
2017-12-04T07:26:48.449Z,98871.73
2017-12-04T07:29:16.750Z,98871.44
2017-12-04T07:31:45.808Z,98876.78
2017-12-04T07:34:14.102Z,98878.83
2017-12-04T07:36:43.680Z,98885.04
2017-12-04T07:39:11.964Z,98882.87
2017-12-04T07:41:40.267Z,98885.44
2017-12-04T07:44:08.568Z,98881.39
2017-12-04T07:46:36.894Z,98887.95
2017-12-04T07:49:05.181Z,98892.97
2017-12-04T07:51:33.473Z,98899.78
2017-12-04T07:54:01.752Z,98903.77
2017-12-04T07:56:30.033Z,98896.42
2017-12-04T07:58:58.351Z,98897.05
2017-12-04T08:01:26.638Z,98898.38
2017-12-04T08:03:54.933Z,98898.32
2017-12-04T08:06:23.218Z,98902.06
2017-12-04T08:08:51.537Z,98904.56
2017-12-04T08:11:20.596Z,98910.63
2017-12-04T08:13:48.874Z,98905.34
2017-12-04T08:16:17.158Z,98911.83
2017-12-04T08:18:45.449Z,98901.10
2017-12-04T08:21:13.728Z,98904.24
2017-12-04T08:23:42.830Z,98908.61
2017-12-04T08:26:11.119Z,98909.00
2017-12-04T08:28:39.406Z,98906.66
2017-12-04T08:31:09.345Z,98907.78
2017-12-04T08:33:37.653Z,98909.44
2017-12-04T08:36:07.021Z,98913.94
2017-12-04T08:38:35.297Z,98911.06
2017-12-04T08:41:03.636Z,98911.55
2017-12-04T08:43:31.910Z,98918.13
2017-12-04T08:46:00.224Z,98924.56
2017-12-04T08:48:28.506Z,98934.52
2017-12-04T08:50:56.813Z,98935.03
2017-12-04T08:53:25.101Z,98930.85
2017-12-04T08:55:53.394Z,98931.88
2017-12-04T08:58:22.444Z,98936.91
2017-12-04T09:00:50.732Z,98931.88
2017-12-04T09:03:19.023Z,98937.23
2017-12-04T09:05:47.316Z,98948.93
2017-12-04T09:08:17.606Z,98947.22
2017-12-04T09:10:45.898Z,98952.31
2017-12-04T09:13:14.181Z,98952.75
2017-12-04T09:15:43.232Z,98954.09
2017-12-04T09:18:11.516Z,98957.73
2017-12-04T09:20:39.800Z,98963.73
2017-12-04T09:23:08.732Z,98960.32
2017-12-04T09:25:37.021Z,98965.58
2017-12-04T09:28:05.308Z,98960.52
2017-12-04T09:30:33.591Z,98962.81
2017-12-04T09:33:01.876Z,98962.73
2017-12-04T09:35:30.171Z,98960.39
2017-12-04T09:37:58.449Z,98959.63
2017-12-04T09:40:26.729Z,98964.02
2017-12-04T09:42:55.881Z,98965.75
2017-12-04T09:45:24.165Z,98965.94
2017-12-04T09:47:52.450Z,98971.05
2017-12-04T09:50:20.736Z,98976.70
2017-12-04T09:52:49.028Z,98973.69
2017-12-04T09:55:17.308Z,98975.88
2017-12-04T09:57:45.599Z,98978.15
2017-12-04T10:00:13.878Z,98978.78
2017-12-04T10:02:42.157Z,98983.62
2017-12-04T10:05:10.452Z,98988.79
2017-12-04T10:07:39.496Z,98988.36
2017-12-04T10:10:07.797Z,98982.52
2017-12-04T10:12:36.068Z,98990.97
2017-12-04T10:15:04.348Z,98990.44
2017-12-04T10:17:32.640Z,98990.19
2017-12-04T10:20:01.693Z,98987.37
2017-12-04T10:22:29.974Z,98992.92
2017-12-04T10:24:58.250Z,98989.51
2017-12-04T10:27:26.528Z,98991.09
2017-12-04T10:29:54.816Z,98987.13
2017-12-04T10:32:23.095Z,98989.61
2017-12-04T10:34:51.369Z,98990.95
2017-12-04T10:37:19.651Z,98989.69
2017-12-04T10:39:47.938Z,98985.59
2017-12-04T10:42:16.220Z,98990.31
2017-12-04T10:44:45.268Z,98990.78
2017-12-04T10:47:13.561Z,98986.02
2017-12-04T10:49:41.857Z,98994.21
2017-12-04T10:52:10.143Z,98989.55
2017-12-04T10:54:39.184Z,98989.23
2017-12-04T10:57:07.460Z,98986.85
2017-12-04T10:59:35.748Z,98988.67
2017-12-04T11:02:04.032Z,98986.87
2017-12-04T11:04:32.313Z,98998.12
2017-12-04T11:07:00.584Z,98996.34
2017-12-04T11:09:28.868Z,98986.77
2017-12-04T11:11:57.155Z,98992.09
2017-12-04T11:14:25.432Z,98990.81
2017-12-04T11:16:53.712Z,98989.00
2017-12-04T11:19:21.999Z,98994.11
2017-12-04T11:21:50.289Z,98996.05
2017-12-04T11:24:18.579Z,98995.10
2017-12-04T11:26:47.252Z,98990.70
2017-12-04T11:29:15.533Z,98994.84
2017-12-04T11:31:43.808Z,99005.79
2017-12-04T11:34:12.088Z,98994.63
2017-12-04T11:36:41.876Z,99003.91
2017-12-04T11:39:10.152Z,99002.37
2017-12-04T11:41:39.205Z,99008.42
2017-12-04T11:44:07.493Z,99005.81
2017-12-04T11:46:35.801Z,99015.66
2017-12-04T11:49:04.845Z,99012.23
2017-12-04T11:51:33.124Z,99016.72
2017-12-04T11:54:02.177Z,99017.16
2017-12-04T11:56:31.234Z,99009.52
2017-12-04T11:59:00.209Z,99012.55
2017-12-04T12:01:28.475Z,99010.08
2017-12-04T12:03:56.756Z,99017.39
2017-12-04T12:06:25.057Z,99010.08
2017-12-04T12:08:53.325Z,99012.64
2017-12-04T12:11:21.597Z,99016.36
2017-12-04T12:13:49.865Z,99020.59
2017-12-04T12:16:18.140Z,99012.86
2017-12-04T12:18:46.422Z,99020.66
2017-12-04T12:21:14.690Z,99016.73
2017-12-04T12:23:43.063Z,99019.59
2017-12-04T12:26:11.342Z,99022.51
2017-12-04T12:28:39.652Z,99019.92
2017-12-04T12:31:07.941Z,99019.74
2017-12-04T12:33:36.229Z,99019.26
2017-12-04T12:36:05.272Z,99027.09
2017-12-04T12:38:33.549Z,99025.02
2017-12-04T12:41:01.826Z,99024.79
2017-12-04T12:43:30.697Z,99020.96
2017-12-04T12:45:58.985Z,99014.22
2017-12-04T12:48:27.272Z,99019.44
2017-12-04T12:50:55.554Z,99017.94
2017-12-04T12:53:23.856Z,99019.53
2017-12-04T12:55:52.904Z,99022.27
2017-12-04T12:58:21.188Z,99018.40
2017-12-04T13:00:49.479Z,99022.00
2017-12-04T13:03:17.749Z,99019.95
2017-12-04T13:05:46.040Z,99015.85
2017-12-04T13:08:14.317Z,99012.89
2017-12-04T13:10:42.612Z,99014.30
2017-12-04T13:13:11.664Z,99016.34
2017-12-04T13:15:39.985Z,99012.73
2017-12-04T13:18:08.272Z,99011.98
2017-12-04T13:20:37.313Z,99022.09
2017-12-04T13:23:05.589Z,99019.08
2017-12-04T13:25:33.868Z,99013.16
2017-12-04T13:28:02.160Z,99009.05
2017-12-04T13:30:30.469Z,99010.42
2017-12-04T13:33:17.468Z,99011.20
2017-12-04T13:36:03.336Z,99009.33
2017-12-04T13:38:31.613Z,99015.98
2017-12-04T13:40:59.911Z,99019.57
2017-12-04T13:43:28.958Z,99029.70
2017-12-04T13:45:57.248Z,99027.39
2017-12-04T13:48:25.569Z,99030.58
2017-12-04T13:50:54.637Z,99022.73
2017-12-04T13:53:22.926Z,99024.20
2017-12-04T13:55:51.209Z,99026.33
2017-12-04T13:58:19.503Z,99024.72
2017-12-04T14:00:47.783Z,99026.83
2017-12-04T14:03:16.090Z,99030.53
2017-12-04T14:05:44.461Z,99031.33
2017-12-04T14:08:12.795Z,99036.03
2017-12-04T14:10:41.849Z,99034.16
2017-12-04T14:13:10.132Z,99036.31
2017-12-04T14:15:38.413Z,99035.56
2017-12-04T14:18:06.716Z,99038.91
2017-12-04T14:20:35.776Z,99039.17
2017-12-04T14:23:04.053Z,99033.36
2017-12-04T14:25:32.439Z,99041.39
2017-12-04T14:28:00.717Z,99047.78
2017-12-04T14:30:29.001Z,99053.40
2017-12-04T14:32:57.289Z,99052.62
2017-12-04T14:35:25.576Z,99058.55
2017-12-04T14:37:53.933Z,99062.78
2017-12-04T14:40:22.221Z,99069.34
2017-12-04T14:42:51.274Z,99074.77
2017-12-04T14:45:19.561Z,99076.61
2017-12-04T14:47:47.868Z,99091.30
2017-12-04T14:50:16.148Z,99091.32
2017-12-04T14:52:44.435Z,99091.42
2017-12-04T14:55:13.483Z,99086.37
2017-12-04T14:57:41.774Z,99093.03
2017-12-04T15:00:10.112Z,99083.36
2017-12-04T15:02:38.429Z,99091.38
2017-12-04T15:05:06.713Z,99092.09
2017-12-04T15:07:34.997Z,99097.05
2017-12-04T15:10:03.385Z,99088.36
2017-12-04T15:12:32.428Z,99091.34
2017-12-04T15:15:00.723Z,99098.09
2017-12-04T15:17:29.079Z,99103.89
2017-12-04T15:19:58.796Z,99101.47
2017-12-04T15:22:27.130Z,99103.82
2017-12-04T15:24:56.224Z,99105.62
2017-12-04T15:27:24.508Z,99104.33
2017-12-04T15:29:53.336Z,99113.81
2017-12-04T15:32:21.624Z,99106.82
2017-12-04T15:34:49.915Z,99106.27
2017-12-04T15:37:18.200Z,99111.10
2017-12-04T15:39:46.480Z,99111.88
2017-12-04T15:42:15.524Z,99111.83
2017-12-04T15:44:43.917Z,99114.17
2017-12-04T15:47:12.215Z,99110.71
2017-12-04T15:49:40.488Z,99119.75
2017-12-04T15:52:08.772Z,99120.14
2017-12-04T15:54:37.100Z,99124.42
2017-12-04T15:57:05.380Z,99124.73
2017-12-04T15:59:34.476Z,99128.95
2017-12-04T16:02:02.761Z,99129.06
2017-12-04T16:04:31.049Z,99143.80
2017-12-04T16:06:59.349Z,99140.80
2017-12-04T16:09:27.635Z,99143.76
2017-12-04T16:11:56.834Z,99144.27
2017-12-04T16:14:25.128Z,99146.61
2017-12-04T16:16:53.444Z,99151.84
2017-12-04T16:19:21.890Z,99163.50
2017-12-04T16:21:50.198Z,99165.81
2017-12-04T16:24:18.470Z,99168.73
2017-12-04T16:26:47.840Z,99168.86
2017-12-04T16:29:16.143Z,99171.06
2017-12-04T16:31:44.416Z,99168.88
2017-12-04T16:34:12.820Z,99170.77
2017-12-04T16:36:41.100Z,99180.22
2017-12-04T16:39:09.404Z,99182.09
2017-12-04T16:41:37.709Z,99184.15
2017-12-04T16:44:06.054Z,99186.91
2017-12-04T16:46:34.361Z,99186.17
2017-12-04T16:49:02.653Z,99194.81
2017-12-04T16:51:30.957Z,99196.97
2017-12-04T16:53:59.258Z,99201.72
2017-12-04T16:56:27.581Z,99206.06
2017-12-04T16:58:55.872Z,99210.00
2017-12-04T17:01:24.195Z,99207.30
2017-12-04T17:03:52.507Z,99211.77
2017-12-04T17:06:20.818Z,99213.41
2017-12-04T17:08:49.112Z,99209.53
2017-12-04T17:11:17.490Z,99215.13
2017-12-04T17:13:45.824Z,99224.00
2017-12-04T17:16:14.229Z,99233.47
2017-12-04T17:18:42.564Z,99231.55
2017-12-04T17:21:10.873Z,99239.13
2017-12-04T17:23:39.180Z,99247.56
2017-12-04T17:26:07.506Z,99248.36
2017-12-04T17:28:35.846Z,99257.52
2017-12-04T17:31:04.189Z,99258.38
2017-12-04T17:33:32.516Z,99254.53
2017-12-04T17:36:00.942Z,99253.00
2017-12-04T17:38:29.285Z,99258.94
2017-12-04T17:40:58.306Z,99261.51
2017-12-04T17:43:26.598Z,99269.08
2017-12-04T17:45:54.902Z,99273.27
2017-12-04T17:48:23.227Z,99269.65
2017-12-04T17:50:52.108Z,99272.51
2017-12-04T17:53:20.455Z,99275.64
2017-12-04T17:55:48.839Z,99276.52
2017-12-04T17:58:17.159Z,99276.95
2017-12-04T18:00:45.488Z,99288.52
2017-12-04T18:03:14.574Z,99281.45
2017-12-04T18:05:42.914Z,99286.80
2017-12-04T18:08:11.234Z,99286.18
2017-12-04T18:10:39.620Z,99290.84
2017-12-04T18:13:08.498Z,99293.76
2017-12-04T18:15:37.674Z,99298.94
2017-12-04T18:18:06.633Z,99310.28
2017-12-04T18:20:35.051Z,99310.98
2017-12-04T18:23:03.360Z,99310.72
2017-12-04T18:25:32.487Z,99309.25
2017-12-04T18:28:01.000Z,99311.55
2017-12-04T18:30:29.338Z,99314.77
2017-12-04T18:32:57.682Z,99309.89
2017-12-04T18:35:26.001Z,99315.67
2017-12-04T18:37:54.311Z,99311.71
2017-12-04T18:40:22.750Z,99324.34
2017-12-04T18:42:51.112Z,99325.50
2017-12-04T18:45:19.686Z,99318.46
2017-12-04T18:47:48.170Z,99319.66
2017-12-04T18:50:16.931Z,99322.92
2017-12-04T18:52:46.271Z,99325.73
2017-12-04T18:55:16.086Z,99319.92
2017-12-04T18:57:45.737Z,99332.20
2017-12-04T19:00:14.842Z,99329.27
2017-12-04T19:02:44.305Z,99322.35
2017-12-04T19:05:14.092Z,99326.98
2017-12-04T19:07:43.969Z,99316.39
2017-12-04T19:10:13.960Z,99326.98
2017-12-04T19:12:43.959Z,99334.11
2017-12-04T19:15:13.688Z,99322.49
2017-12-04T19:17:43.374Z,99326.76
2017-12-04T19:20:13.305Z,99324.16
2017-12-04T19:22:43.178Z,99322.27
2017-12-04T19:25:13.066Z,99331.37
2017-12-04T19:27:43.024Z,99334.22
2017-12-04T19:30:12.920Z,99338.50
2017-12-04T19:32:42.941Z,99342.98
2017-12-04T19:35:13.052Z,99346.91
2017-12-04T19:37:43.070Z,99356.88
2017-12-04T19:40:13.223Z,99356.98
2017-12-04T19:42:43.219Z,99364.02
2017-12-04T19:45:13.293Z,99365.89
2017-12-04T19:47:43.338Z,99371.59
2017-12-04T19:50:13.438Z,99368.80
2017-12-04T19:52:43.470Z,99362.49
2017-12-04T19:55:13.775Z,99362.69
2017-12-04T19:57:43.812Z,99365.62
2017-12-04T20:00:13.943Z,99367.59
2017-12-04T20:02:44.081Z,99373.25
2017-12-04T20:05:14.869Z,99363.11
2017-12-04T20:07:45.630Z,99371.31
2017-12-04T20:10:15.667Z,99374.28
2017-12-04T20:12:45.811Z,99376.45
2017-12-04T20:15:16.049Z,99381.38
2017-12-04T20:17:46.312Z,99380.69
2017-12-04T20:20:16.500Z,99379.31
2017-12-04T20:22:46.669Z,99374.88
2017-12-04T20:25:16.743Z,99376.36
2017-12-04T20:27:46.723Z,99374.72
2017-12-04T20:30:17.713Z,99378.16
2017-12-04T20:32:47.735Z,99378.30
2017-12-04T20:35:17.717Z,99380.69
2017-12-04T20:37:47.822Z,99387.02
2017-12-04T20:40:18.187Z,99392.74
2017-12-04T20:42:48.329Z,99388.59
2017-12-04T20:45:18.479Z,99393.95
2017-12-04T20:47:48.724Z,99398.66
2017-12-04T20:50:18.713Z,99396.94
2017-12-04T20:52:50.247Z,99403.78
2017-12-04T20:55:20.334Z,99400.47
2017-12-04T20:57:50.719Z,99409.30
2017-12-04T21:00:20.931Z,99419.67
2017-12-04T21:02:50.979Z,99419.54
2017-12-04T21:05:21.106Z,99416.10
2017-12-04T21:07:53.076Z,99416.94
2017-12-04T21:10:40.206Z,99418.03
2017-12-04T21:13:27.342Z,99426.89
2017-12-04T21:16:21.607Z,99425.73
2017-12-04T21:18:51.613Z,99426.16
2017-12-04T21:21:21.632Z,99430.19
2017-12-04T21:23:51.605Z,99431.48
2017-12-04T21:26:22.388Z,99445.53
2017-12-04T21:28:52.387Z,99444.25
2017-12-04T21:31:22.381Z,99440.83
2017-12-04T21:33:52.380Z,99442.48
2017-12-04T21:36:23.064Z,99444.87
2017-12-04T21:38:53.443Z,99443.88
2017-12-04T21:41:24.284Z,99445.41
2017-12-04T21:43:54.990Z,99446.97
2017-12-04T21:46:25.041Z,99451.17
2017-12-04T21:48:55.647Z,99452.05
2017-12-04T21:51:25.507Z,99455.27
2017-12-04T21:53:55.456Z,99455.13
2017-12-04T21:56:25.620Z,99454.70
2017-12-04T21:58:56.357Z,99464.10
2017-12-04T22:01:25.727Z,99467.02
2017-12-04T22:03:54.280Z,99474.14
2017-12-04T22:06:22.593Z,99464.48
2017-12-04T22:08:50.892Z,99464.37
2017-12-04T22:11:19.182Z,99468.68
2017-12-04T22:13:47.470Z,99469.06
2017-12-04T22:16:15.752Z,99461.12
2017-12-04T22:18:44.042Z,99468.22
2017-12-04T22:21:12.377Z,99469.13
2017-12-04T22:23:40.661Z,99471.95
2017-12-04T22:26:08.945Z,99477.20
2017-12-04T22:28:37.234Z,99478.23
2017-12-04T22:31:05.520Z,99482.14
2017-12-04T22:33:33.814Z,99484.68
2017-12-04T22:36:02.898Z,99492.86
2017-12-04T22:38:31.185Z,99482.00
2017-12-04T22:41:00.248Z,99483.06
2017-12-04T22:43:28.545Z,99483.06
2017-12-04T22:45:56.858Z,99483.10
2017-12-04T22:48:25.155Z,99479.24
2017-12-04T22:50:53.757Z,99482.42
2017-12-04T22:53:22.037Z,99476.92
2017-12-04T22:55:50.315Z,99475.55
2017-12-04T22:58:18.646Z,99478.50
2017-12-04T23:00:46.930Z,99486.36
2017-12-04T23:03:15.213Z,99484.59
2017-12-04T23:05:43.495Z,99487.62
2017-12-04T23:08:11.776Z,99481.25
2017-12-04T23:10:40.764Z,99478.83
2017-12-04T23:13:09.068Z,99477.33
2017-12-04T23:15:38.272Z,99483.78
2017-12-04T23:18:06.560Z,99483.88
2017-12-04T23:20:34.850Z,99487.88
2017-12-04T23:23:03.914Z,99494.23
2017-12-04T23:25:32.199Z,99482.05
2017-12-04T23:28:00.485Z,99489.27
2017-12-04T23:30:28.781Z,99491.56
2017-12-04T23:32:57.171Z,99493.34
2017-12-04T23:35:25.500Z,99495.03
2017-12-04T23:37:53.804Z,99490.66
2017-12-04T23:40:22.085Z,99496.78
2017-12-04T23:42:50.361Z,99496.88
2017-12-04T23:45:19.064Z,99495.98
2017-12-04T23:47:47.350Z,99493.70
2017-12-04T23:50:15.633Z,99490.73
2017-12-04T23:52:43.913Z,99489.34
2017-12-04T23:55:12.198Z,99485.98
2017-12-04T23:57:40.486Z,99488.52
